createdAt,value
2023-05-15T00:03:44.794Z,0.00
2023-05-15T00:08:44.621Z,0.00
2023-05-15T00:13:44.556Z,0.00
2023-05-15T00:18:44.520Z,0.00
2023-05-15T00:23:44.413Z,0.00
2023-05-15T00:28:44.347Z,0.00
2023-05-15T00:33:44.279Z,0.00
2023-05-15T00:38:44.222Z,0.00
2023-05-15T00:43:44.157Z,0.00
2023-05-15T00:48:44.084Z,0.00
2023-05-15T00:53:44.070Z,0.00
2023-05-15T00:58:43.962Z,0.00
2023-05-15T01:03:43.909Z,0.00
2023-05-15T01:08:43.833Z,0.00
2023-05-15T01:13:43.775Z,0.00
2023-05-15T01:18:43.844Z,0.00
2023-05-15T01:23:43.628Z,0.00
2023-05-15T01:28:43.628Z,0.00
2023-05-15T01:33:43.503Z,0.00
2023-05-15T01:38:43.446Z,0.00
2023-05-15T01:43:43.374Z,0.00
2023-05-15T01:48:43.298Z,0.00
2023-05-15T01:53:43.242Z,0.00
2023-05-15T01:58:43.163Z,0.00
2023-05-15T02:03:43.144Z,0.00
2023-05-15T02:08:43.055Z,0.00
2023-05-15T02:13:42.972Z,0.00
2023-05-15T02:18:42.922Z,0.00
2023-05-15T02:23:42.842Z,0.00
2023-05-15T02:28:42.775Z,0.00
2023-05-15T02:33:42.731Z,0.00
2023-05-15T02:38:42.638Z,0.00
2023-05-15T02:43:42.582Z,0.00
2023-05-15T02:48:42.516Z,0.00
2023-05-15T02:53:42.462Z,0.00
2023-05-15T02:58:42.385Z,0.00
2023-05-15T03:03:42.315Z,0.00
2023-05-15T03:08:42.236Z,0.00
2023-05-15T03:13:42.182Z,0.00
2023-05-15T03:18:42.171Z,5.62
2023-05-15T03:23:42.046Z,11.25
2023-05-15T03:28:42.432Z,16.87
2023-05-15T03:33:41.931Z,22.50
2023-05-15T03:38:41.836Z,28.12
2023-05-15T03:43:41.784Z,45.00
2023-05-15T03:48:41.718Z,56.25
2023-05-15T03:53:41.662Z,73.12
2023-05-15T03:58:41.590Z,84.37
2023-05-15T04:03:41.526Z,106.87
2023-05-15T04:08:41.646Z,129.37
2023-05-15T04:13:41.398Z,151.87
2023-05-15T04:18:41.365Z,168.75
2023-05-15T04:23:41.278Z,196.87
2023-05-15T04:28:49.378Z,241.87
2023-05-15T04:33:42.155Z,286.87
2023-05-15T04:38:41.056Z,320.62
2023-05-15T04:43:41.387Z,399.37
2023-05-15T04:48:40.960Z,472.50
2023-05-15T04:53:40.873Z,444.37
2023-05-15T04:58:40.796Z,433.12
2023-05-15T05:03:40.777Z,523.12
2023-05-15T05:08:40.665Z,624.37
2023-05-15T05:13:40.606Z,922.50
2023-05-15T05:18:40.565Z,849.37
2023-05-15T05:23:40.477Z,956.25
2023-05-15T05:28:40.410Z,1153.12
2023-05-15T05:33:40.353Z,928.12
2023-05-15T05:38:40.270Z,1198.12
2023-05-15T05:43:40.226Z,1293.75
2023-05-15T05:48:40.140Z,1130.62
2023-05-15T05:53:40.083Z,973.12
2023-05-15T05:58:40.004Z,1164.37
2023-05-15T06:03:40.030Z,2002.50
2023-05-15T06:08:39.866Z,1501.87
2023-05-15T06:13:39.813Z,2311.87
2023-05-15T06:18:39.788Z,3150.00
2023-05-15T06:23:39.711Z,2064.37
2023-05-15T06:28:39.618Z,1895.62
2023-05-15T06:33:39.569Z,855.00
2023-05-15T06:38:39.488Z,877.50
2023-05-15T06:43:39.428Z,961.87
2023-05-15T06:48:39.346Z,2503.12
2023-05-15T06:53:39.295Z,1507.50
2023-05-15T06:58:39.211Z,1355.62
2023-05-15T07:03:39.164Z,4145.62
2023-05-15T07:08:39.088Z,3476.25
2023-05-15T07:13:39.043Z,3150.00
2023-05-15T07:18:39.061Z,4381.87
2023-05-15T07:23:38.903Z,4455.00
2023-05-15T07:28:38.826Z,4348.12
2023-05-15T07:33:38.759Z,4455.00
2023-05-15T07:38:38.687Z,4269.37
2023-05-15T07:43:38.632Z,4938.75
2023-05-15T07:48:38.557Z,3285.00
2023-05-15T07:53:38.496Z,2913.75
2023-05-15T07:58:38.457Z,1524.37
2023-05-15T08:03:38.505Z,1203.75
2023-05-15T08:08:38.299Z,1265.62
2023-05-15T08:13:38.246Z,1535.62
2023-05-15T08:18:38.221Z,1501.87
2023-05-15T08:23:38.112Z,1288.12
2023-05-15T08:28:38.035Z,2632.50
2023-05-15T08:33:37.981Z,4207.50
2023-05-15T08:38:37.898Z,1006.87
2023-05-15T08:43:37.848Z,973.12
2023-05-15T08:48:37.988Z,4466.25
2023-05-15T08:53:37.717Z,4471.87
2023-05-15T08:58:37.790Z,4522.50
2023-05-15T09:03:37.744Z,1068.75
2023-05-15T09:08:37.712Z,911.25
2023-05-15T09:13:37.756Z,776.25
2023-05-15T09:18:37.816Z,2891.25
2023-05-15T09:23:37.835Z,4286.25
2023-05-15T09:28:37.807Z,821.25
2023-05-15T09:33:37.216Z,4078.12
2023-05-15T09:38:37.134Z,1046.25
2023-05-15T09:43:37.089Z,776.25
2023-05-15T09:48:37.111Z,669.37
2023-05-15T09:53:36.966Z,618.75
2023-05-15T09:58:36.894Z,669.37
2023-05-15T10:03:36.838Z,759.37
2023-05-15T10:08:36.774Z,1490.62
2023-05-15T10:13:36.706Z,3948.75
2023-05-15T10:18:36.656Z,4044.37
2023-05-15T10:23:36.594Z,2199.37
2023-05-15T10:28:36.504Z,933.75
2023-05-15T10:33:36.437Z,3420.00
2023-05-15T10:38:36.378Z,3346.87
2023-05-15T10:43:36.318Z,933.75
2023-05-15T10:48:36.232Z,3251.25
2023-05-15T10:53:36.176Z,911.25
2023-05-15T10:58:36.101Z,770.62
2023-05-15T11:03:48.171Z,922.50
2023-05-15T11:08:37.220Z,1456.87
2023-05-15T11:13:35.935Z,3633.75
2023-05-15T11:18:35.890Z,1991.25
2023-05-15T11:23:35.807Z,1170.00
2023-05-15T11:28:35.736Z,1366.87
2023-05-15T11:33:35.677Z,1501.87
2023-05-15T11:38:35.602Z,708.75
2023-05-15T11:43:35.534Z,641.25
2023-05-15T11:48:35.512Z,714.37
2023-05-15T11:53:35.435Z,714.37
2023-05-15T11:58:35.358Z,703.12
2023-05-15T12:03:35.469Z,731.25
2023-05-15T12:08:35.224Z,804.37
2023-05-15T12:13:35.186Z,945.00
2023-05-15T12:18:35.125Z,1158.75
2023-05-15T12:23:35.032Z,1141.87
2023-05-15T12:28:34.965Z,916.87
2023-05-15T12:33:34.899Z,849.37
2023-05-15T12:38:34.854Z,759.37
2023-05-15T12:43:34.785Z,787.50
2023-05-15T12:48:34.698Z,810.00
2023-05-15T12:53:34.664Z,832.50
2023-05-15T12:58:34.562Z,787.50
2023-05-15T13:03:34.636Z,697.50
2023-05-15T13:08:34.434Z,635.62
2023-05-15T13:13:34.379Z,613.12
2023-05-15T13:18:34.336Z,466.87
2023-05-15T13:23:34.238Z,528.75
2023-05-15T13:28:34.174Z,540.00
2023-05-15T13:33:34.114Z,579.37
2023-05-15T13:38:34.039Z,427.50
2023-05-15T13:43:33.984Z,579.37
2023-05-15T13:48:33.954Z,416.25
2023-05-15T13:53:33.862Z,444.37
2023-05-15T13:58:33.847Z,427.50
2023-05-15T14:03:33.853Z,506.25
2023-05-15T14:08:33.647Z,528.75
2023-05-15T14:13:33.598Z,495.00
2023-05-15T14:18:33.577Z,472.50
2023-05-15T14:23:33.459Z,630.00
2023-05-15T14:28:33.403Z,720.00
2023-05-15T14:33:33.325Z,686.25
2023-05-15T14:38:33.254Z,528.75
2023-05-15T14:43:33.197Z,478.12
2023-05-15T14:48:33.131Z,405.00
2023-05-15T14:53:33.058Z,286.87
2023-05-15T14:58:33.001Z,309.37
2023-05-15T15:03:34.141Z,331.87
2023-05-15T15:08:32.879Z,315.00
2023-05-15T15:13:32.801Z,281.25
2023-05-15T15:18:32.790Z,258.75
2023-05-15T15:23:32.674Z,247.50
2023-05-15T15:28:32.601Z,270.00
2023-05-15T15:33:32.551Z,292.50
2023-05-15T15:38:32.468Z,309.37
2023-05-15T15:43:32.422Z,348.75
2023-05-15T15:48:32.397Z,298.12
2023-05-15T15:53:32.295Z,247.50
2023-05-15T15:58:32.457Z,225.00
2023-05-15T16:03:32.230Z,213.75
2023-05-15T16:08:32.068Z,236.25
2023-05-15T16:13:32.008Z,241.87
2023-05-15T16:18:31.996Z,247.50
2023-05-15T16:23:31.878Z,275.62
2023-05-15T16:28:31.816Z,275.62
2023-05-15T16:33:31.750Z,292.50
2023-05-15T16:38:31.671Z,320.62
2023-05-15T16:43:31.621Z,281.25
2023-05-15T16:48:31.545Z,247.50
2023-05-15T16:53:31.572Z,230.62
2023-05-15T16:58:31.398Z,225.00
2023-05-15T17:03:31.479Z,196.87
2023-05-15T17:08:31.276Z,219.37
2023-05-15T17:13:31.209Z,219.37
2023-05-15T17:18:31.170Z,208.12
2023-05-15T17:23:31.103Z,196.87
2023-05-15T17:28:30.988Z,163.12
2023-05-15T17:33:30.950Z,140.62
2023-05-15T17:38:30.855Z,118.12
2023-05-15T17:43:30.797Z,112.50
2023-05-15T17:48:30.725Z,106.87
2023-05-15T17:53:30.670Z,101.25
2023-05-15T17:58:30.604Z,90.00
2023-05-15T18:03:30.687Z,78.75
2023-05-15T18:08:30.479Z,67.50
2023-05-15T18:13:30.397Z,50.62
2023-05-15T18:18:30.408Z,39.37
2023-05-15T18:23:30.269Z,39.37
2023-05-15T18:28:30.240Z,33.75
2023-05-15T18:33:30.164Z,28.12
2023-05-15T18:38:30.089Z,22.50
2023-05-15T18:43:30.036Z,16.87
2023-05-15T18:48:29.981Z,11.25
2023-05-15T18:53:29.894Z,5.62
2023-05-15T18:58:29.845Z,5.62
2023-05-15T19:03:29.819Z,0.00
2023-05-15T19:08:29.721Z,0.00
2023-05-15T19:13:29.625Z,0.00
2023-05-15T19:18:29.624Z,0.00
2023-05-15T19:23:29.503Z,0.00
2023-05-15T19:28:29.436Z,0.00
2023-05-15T19:33:29.364Z,0.00
2023-05-15T19:38:29.310Z,0.00
2023-05-15T19:43:29.227Z,0.00
2023-05-15T19:48:29.166Z,0.00
2023-05-15T19:53:29.092Z,0.00
2023-05-15T19:58:29.048Z,0.00
2023-05-15T20:03:29.036Z,0.00
2023-05-15T20:08:28.928Z,0.00
2023-05-15T20:13:28.844Z,0.00
2023-05-15T20:18:28.901Z,0.00
2023-05-15T20:23:28.699Z,0.00
2023-05-15T20:28:28.658Z,0.00
2023-05-15T20:33:28.665Z,0.00
2023-05-15T20:38:28.556Z,0.00
2023-05-15T20:43:28.458Z,0.00
2023-05-15T20:48:28.376Z,0.00
2023-05-15T20:53:28.310Z,0.00
2023-05-15T20:58:28.265Z,0.00
2023-05-15T21:03:28.223Z,0.00
2023-05-15T21:08:28.152Z,0.00
2023-05-15T21:13:28.081Z,0.00
2023-05-15T21:18:27.993Z,0.00
2023-05-15T21:23:27.933Z,0.00
2023-05-15T21:28:27.855Z,0.00
2023-05-15T21:33:27.784Z,0.00
2023-05-15T21:38:27.728Z,0.00
2023-05-15T21:43:27.658Z,0.00
2023-05-15T21:48:27.594Z,0.00
2023-05-15T21:53:27.537Z,0.00
2023-05-15T21:58:27.454Z,0.00
2023-05-15T22:03:27.486Z,0.00
2023-05-15T22:08:27.325Z,0.00
2023-05-15T22:13:27.273Z,0.00
2023-05-15T22:18:27.182Z,0.00
2023-05-15T22:23:27.125Z,0.00
2023-05-15T22:28:27.065Z,0.00
2023-05-15T22:33:26.994Z,0.00
2023-05-15T22:38:26.932Z,0.00
2023-05-15T22:43:26.858Z,0.00
2023-05-15T22:48:26.795Z,0.00
2023-05-15T22:53:26.726Z,0.00
2023-05-15T22:58:26.669Z,0.00
2023-05-15T23:03:26.662Z,0.00
2023-05-15T23:08:26.548Z,0.00
2023-05-15T23:13:26.469Z,0.00
2023-05-15T23:18:26.409Z,0.00
2023-05-15T23:23:26.342Z,0.00
2023-05-15T23:28:26.330Z,0.00
2023-05-15T23:33:26.210Z,0.00
2023-05-15T23:38:26.155Z,0.00
2023-05-15T23:43:26.083Z,0.00
2023-05-15T23:48:26.033Z,0.00
2023-05-15T23:53:25.975Z,0.00
2023-05-15T23:58:25.895Z,0.00
